Terminal Aerodrome Forecast
Issued by NWS Spokane, WA

Home | Current Version | Previous Version | Text Only | Print | Product List | Glossary On
Versions: 1 2 3 4 5 6 7 8 9 10 11 12 13 14 15 16 17 18 19 20 21 22 23 24
734
FTUS46 KOTX 260520
TAFLWS
TAF
KLWS 260520Z 2606/2706 VRB03KT P6SM OVC250
     FM261000 26004KT P6SM OVC100
     FM261500 28006KT P6SM VCSH OVC050
     FM261800 30018G24KT P6SM SKC
     FM270300 26009KT P6SM FEW250=

USA.gov is the U.S. government's official web portal to all federal, state and local government web resources and services.